createdAt,value
2016-12-01T00:00:50.119Z,-3.48
2016-12-01T00:01:58.824Z,-3.46
2016-12-01T00:03:07.504Z,-3.62
2016-12-01T00:04:16.185Z,-3.55
2016-12-01T00:05:24.865Z,-3.5
2016-12-01T00:06:33.557Z,-3.51
2016-12-01T00:07:42.246Z,-3.62
2016-12-01T00:08:50.931Z,-3.53
2016-12-01T00:09:59.610Z,-3.64
2016-12-01T00:11:08.290Z,-3.68
2016-12-01T00:12:16.970Z,-3.55
2016-12-01T00:13:25.650Z,-3.41
2016-12-01T00:14:34.330Z,-3.27
2016-12-01T00:15:43.011Z,-3.22
2016-12-01T00:16:51.696Z,-3.19
2016-12-01T00:18:00.375Z,-3.14
2016-12-01T00:19:09.055Z,-3.08
2016-12-01T00:20:17.732Z,-2.98
2016-12-01T00:21:26.417Z,-2.98
2016-12-01T00:22:35.103Z,-2.89
2016-12-01T00:23:43.817Z,-2.9
2016-12-01T00:24:52.498Z,-2.99
2016-12-01T00:26:01.185Z,-3.01
2016-12-01T00:27:09.867Z,-3.04
2016-12-01T00:28:18.549Z,-2.91
2016-12-01T00:29:27.230Z,-2.83
2016-12-01T00:30:35.911Z,-2.55
2016-12-01T00:31:44.587Z,-2.42
2016-12-01T00:32:53.281Z,-2.33
2016-12-01T00:34:01.970Z,-2.36
2016-12-01T00:35:10.651Z,-2.32
2016-12-01T00:36:19.329Z,-2.45
2016-12-01T00:37:28.015Z,-2.44
2016-12-01T00:38:36.697Z,-2.5
2016-12-01T00:39:45.379Z,-2.62
2016-12-01T00:40:54.086Z,-2.63
2016-12-01T00:42:02.770Z,-2.69
2016-12-01T00:43:11.461Z,-2.66
2016-12-01T00:44:20.144Z,-2.72
2016-12-01T00:45:28.830Z,-2.66
2016-12-01T00:46:37.514Z,-2.68
2016-12-01T00:47:46.190Z,-2.66
2016-12-01T00:48:54.872Z,-2.62
2016-12-01T00:50:03.584Z,-2.65
2016-12-01T00:51:12.263Z,-2.54
2016-12-01T00:52:21.259Z,-2.62
2016-12-01T00:53:29.940Z,-2.69
2016-12-01T00:54:38.624Z,-2.72
2016-12-01T00:55:47.308Z,-2.69
2016-12-01T00:56:55.983Z,-2.72
2016-12-01T00:58:04.713Z,-2.69
2016-12-01T00:59:13.397Z,-2.68
2016-12-01T01:00:22.079Z,-2.73
2016-12-01T01:01:30.789Z,-2.73
2016-12-01T01:02:39.463Z,-2.83
2016-12-01T01:03:48.147Z,-2.75
2016-12-01T01:04:56.860Z,-2.75
2016-12-01T01:06:05.539Z,-2.58
2016-12-01T01:07:14.223Z,-2.51
2016-12-01T01:08:22.900Z,-2.58
2016-12-01T01:09:31.593Z,-2.58
2016-12-01T01:10:40.276Z,-2.66
2016-12-01T01:11:48.957Z,-2.73
2016-12-01T01:12:57.642Z,-2.76
2016-12-01T01:14:06.328Z,-2.91
2016-12-01T01:15:15.009Z,-2.9
2016-12-01T01:16:23.694Z,-2.89
2016-12-01T01:17:32.708Z,-2.98
2016-12-01T01:18:41.389Z,-2.98
2016-12-01T01:19:50.072Z,-3.05
2016-12-01T01:20:58.754Z,-3.14
2016-12-01T01:22:07.436Z,-3.09
2016-12-01T01:23:16.119Z,-3.17
2016-12-01T01:24:24.804Z,-3.08
2016-12-01T01:25:33.511Z,-3.09
2016-12-01T01:26:42.508Z,-3.08
2016-12-01T01:27:51.190Z,-3.04
2016-12-01T01:28:59.883Z,-3.15
2016-12-01T01:30:08.576Z,-2.98
2016-12-01T01:31:17.256Z,-2.96
2016-12-01T01:32:25.936Z,-2.98
2016-12-01T01:33:34.618Z,-2.84
2016-12-01T01:34:43.303Z,-2.91
2016-12-01T01:35:51.989Z,-2.89
2016-12-01T01:37:00.674Z,-2.94
2016-12-01T01:38:09.695Z,-2.87
2016-12-01T01:39:18.375Z,-2.93
2016-12-01T01:40:27.054Z,-2.94
2016-12-01T01:41:35.741Z,-2.98
2016-12-01T01:42:44.426Z,-3.05
2016-12-01T01:43:53.114Z,-3.02
2016-12-01T01:45:01.795Z,-2.91
2016-12-01T01:46:10.805Z,-2.61
2016-12-01T01:47:19.484Z,-2.55
2016-12-01T01:48:28.171Z,-2.63
2016-12-01T01:49:36.850Z,-2.58
2016-12-01T01:50:45.533Z,-2.42
2016-12-01T01:51:54.215Z,-2.36
2016-12-01T01:53:03.206Z,-2.39
2016-12-01T01:54:11.885Z,-2.36
2016-12-01T01:55:20.567Z,-2.34
2016-12-01T01:56:29.255Z,-2.22
2016-12-01T01:57:37.943Z,-2.15
2016-12-01T01:58:46.626Z,-2.2
2016-12-01T01:59:55.311Z,-2.39
2016-12-01T02:01:03.993Z,-2.54
2016-12-01T02:02:12.716Z,-2.7
2016-12-01T02:03:21.419Z,-2.83
2016-12-01T02:04:30.101Z,-2.99
2016-12-01T02:05:38.784Z,-3.12
2016-12-01T02:06:47.467Z,-3.07
2016-12-01T02:07:56.150Z,-3.14
2016-12-01T02:09:04.838Z,-3.09
2016-12-01T02:10:13.516Z,-3.07
2016-12-01T02:11:22.199Z,-2.91
2016-12-01T02:12:30.886Z,-2.78
2016-12-01T02:13:39.565Z,-2.72
2016-12-01T02:14:48.244Z,-2.66
2016-12-01T02:15:56.928Z,-2.61
2016-12-01T02:17:05.640Z,-2.52
2016-12-01T02:18:14.323Z,-2.66
2016-12-01T02:19:23.007Z,-2.57
2016-12-01T02:20:31.688Z,-2.65
2016-12-01T02:21:40.374Z,-2.66
2016-12-01T02:22:49.077Z,-2.62
2016-12-01T02:23:57.762Z,-2.68
2016-12-01T02:25:06.445Z,-2.65
2016-12-01T02:26:15.129Z,-2.66
2016-12-01T02:27:23.847Z,-2.5
2016-12-01T02:28:32.539Z,-2.4
2016-12-01T02:29:41.224Z,-2.48
2016-12-01T02:30:49.904Z,-2.42
2016-12-01T02:31:58.586Z,-2.5
2016-12-01T02:33:07.270Z,-2.66
2016-12-01T02:34:15.955Z,-2.65
2016-12-01T02:35:24.633Z,-2.69
2016-12-01T02:36:33.311Z,-2.68
2016-12-01T02:37:41.995Z,-2.7
2016-12-01T02:38:50.678Z,-2.63
2016-12-01T02:39:59.361Z,-2.51
2016-12-01T02:41:08.043Z,-2.45
2016-12-01T02:42:16.725Z,-2.42
2016-12-01T02:43:25.407Z,-2.39
2016-12-01T02:44:34.085Z,-2.36
2016-12-01T02:45:42.770Z,-2.28
2016-12-01T02:46:51.484Z,-2.25
2016-12-01T02:48:00.171Z,-2.2
2016-12-01T02:49:08.852Z,-2.17
2016-12-01T02:50:17.537Z,-2.2
2016-12-01T02:51:26.222Z,-2.14
2016-12-01T02:52:34.905Z,-2
2016-12-01T02:53:43.583Z,-1.99
2016-12-01T02:54:52.262Z,-2.07
2016-12-01T02:56:00.940Z,-2
2016-12-01T02:57:09.624Z,-2.1
2016-12-01T02:58:18.309Z,-2.08
2016-12-01T02:59:27.001Z,-2.04
2016-12-01T03:00:35.681Z,-1.93
2016-12-01T03:01:44.692Z,-2.04
2016-12-01T03:02:53.379Z,-2.02
2016-12-01T03:04:02.056Z,-2.04
2016-12-01T03:05:10.742Z,-2
2016-12-01T03:06:19.428Z,-2.14
2016-12-01T03:07:28.108Z,-2.23
2016-12-01T03:08:36.792Z,-2.23
2016-12-01T03:09:45.471Z,-2.26
2016-12-01T03:10:54.470Z,-2.25
2016-12-01T03:12:03.152Z,-2.23
2016-12-01T03:13:12.147Z,-2.28
2016-12-01T03:14:20.827Z,-2.32
2016-12-01T03:15:29.516Z,-2.22
2016-12-01T03:16:38.192Z,-2.39
2016-12-01T03:17:46.872Z,-2.22
2016-12-01T03:18:55.557Z,-2.22
2016-12-01T03:20:04.236Z,-2.1
2016-12-01T03:21:12.918Z,-2.07
2016-12-01T03:22:21.596Z,-2.1
2016-12-01T03:23:30.279Z,-2.14
2016-12-01T03:24:38.960Z,-2.22
2016-12-01T03:25:47.644Z,-2.15
2016-12-01T03:26:56.325Z,-2.15
2016-12-01T03:28:05.006Z,-2.2
2016-12-01T03:29:13.688Z,-2.2
2016-12-01T03:30:22.373Z,-2.17
2016-12-01T03:31:31.058Z,-2.36
2016-12-01T03:32:39.768Z,-2.32
2016-12-01T03:33:48.445Z,-2.33
2016-12-01T03:34:57.443Z,-2.36
2016-12-01T03:36:06.155Z,-2.36
2016-12-01T03:37:14.836Z,-2.37
2016-12-01T03:38:23.515Z,-2.28
2016-12-01T03:39:32.194Z,-2.4
2016-12-01T03:40:40.875Z,-2.44
2016-12-01T03:41:49.557Z,-2.48
2016-12-01T03:42:58.245Z,-2.44
2016-12-01T03:44:06.929Z,-2.45
2016-12-01T03:45:15.609Z,-2.4
2016-12-01T03:46:24.323Z,-2.34
2016-12-01T03:47:33.005Z,-2.23
2016-12-01T03:48:41.682Z,-2.18
2016-12-01T03:49:50.358Z,-2.07
2016-12-01T03:50:59.042Z,-2.15
2016-12-01T03:52:07.725Z,-2.2
2016-12-01T03:53:16.409Z,-2.26
2016-12-01T03:54:25.107Z,-2.29
2016-12-01T03:55:34.458Z,-2.26
2016-12-01T03:56:43.138Z,-2.34
2016-12-01T03:57:51.817Z,-2.34
2016-12-01T03:59:00.501Z,-2.36
2016-12-01T04:00:09.182Z,-2.36
2016-12-01T04:01:17.866Z,-2.47
2016-12-01T04:02:26.546Z,-2.4
2016-12-01T04:03:35.240Z,-2.45
2016-12-01T04:04:43.929Z,-2.44
2016-12-01T04:05:52.612Z,-2.47
2016-12-01T04:07:01.291Z,-2.37
2016-12-01T04:08:09.974Z,-2.37
2016-12-01T04:09:18.659Z,-2.47
2016-12-01T04:10:27.337Z,-2.32
2016-12-01T04:11:36.030Z,-2.22
2016-12-01T04:12:44.712Z,-2.14
2016-12-01T04:13:53.390Z,-2.15
2016-12-01T04:15:02.071Z,-2.15
2016-12-01T04:16:10.788Z,-2.13
2016-12-01T04:17:19.473Z,-2.15
2016-12-01T04:18:28.156Z,-2.13
2016-12-01T04:19:36.846Z,-2.05
2016-12-01T04:20:45.533Z,-2.02
2016-12-01T04:21:54.250Z,-2.02
2016-12-01T04:23:02.942Z,-1.93
2016-12-01T04:24:11.623Z,-1.97
2016-12-01T04:25:20.305Z,-1.99
2016-12-01T04:26:28.985Z,-2
2016-12-01T04:27:37.671Z,-2.05
2016-12-01T04:28:46.351Z,-1.9
2016-12-01T04:29:55.030Z,-1.89
2016-12-01T04:31:03.716Z,-1.93
2016-12-01T04:32:12.400Z,-1.89
2016-12-01T04:33:21.086Z,-1.89
2016-12-01T04:34:29.766Z,-1.97
2016-12-01T04:35:38.453Z,-2.02
2016-12-01T04:36:47.139Z,-2.04
2016-12-01T04:37:55.820Z,-2.23
2016-12-01T04:39:04.529Z,-2.18
2016-12-01T04:40:13.213Z,-2.39
2016-12-01T04:41:21.896Z,-2.26
2016-12-01T04:42:30.579Z,-2.29
2016-12-01T04:43:39.262Z,-2.23
2016-12-01T04:44:47.947Z,-2.36
2016-12-01T04:45:56.625Z,-2.28
2016-12-01T04:47:05.314Z,-2.42
2016-12-01T04:48:13.996Z,-2.44
2016-12-01T04:49:22.671Z,-2.47
2016-12-01T04:50:31.362Z,-2.42
2016-12-01T04:51:40.042Z,-2.4
2016-12-01T04:52:49.038Z,-2.4
2016-12-01T04:53:57.727Z,-2.5
2016-12-01T04:55:06.411Z,-2.47
2016-12-01T04:56:15.093Z,-2.54
2016-12-01T04:57:23.771Z,-2.65
2016-12-01T04:58:32.453Z,-2.58
2016-12-01T04:59:41.152Z,-2.62
2016-12-01T05:00:49.834Z,-2.75
2016-12-01T05:01:58.521Z,-2.8
2016-12-01T05:03:07.207Z,-2.87
2016-12-01T05:04:15.884Z,-2.91
2016-12-01T05:05:24.564Z,-2.89
2016-12-01T05:06:33.250Z,-2.96
2016-12-01T05:07:41.935Z,-3.11
2016-12-01T05:08:50.617Z,-3.07
2016-12-01T05:09:59.302Z,-3.14
2016-12-01T05:11:07.986Z,-3.15
2016-12-01T05:12:16.675Z,-3.22
2016-12-01T05:13:25.359Z,-3.26
2016-12-01T05:14:34.037Z,-3.3
2016-12-01T05:15:42.720Z,-3.29
2016-12-01T05:16:51.400Z,-3.38
2016-12-01T05:18:00.083Z,-3.36
2016-12-01T05:19:08.770Z,-3.53
2016-12-01T05:20:17.448Z,-3.61
2016-12-01T05:21:26.131Z,-3.71
2016-12-01T05:22:34.812Z,-3.75
2016-12-01T05:23:43.496Z,-3.9
2016-12-01T05:24:52.175Z,-3.84
2016-12-01T05:26:00.860Z,-3.83
2016-12-01T05:27:09.543Z,-3.84
2016-12-01T05:28:18.228Z,-3.83
2016-12-01T05:29:26.915Z,-3.85
2016-12-01T05:30:35.592Z,-3.88
2016-12-01T05:31:44.275Z,-3.85
2016-12-01T05:32:52.952Z,-3.94
2016-12-01T05:34:01.659Z,-3.99
2016-12-01T05:35:10.343Z,-4.04
2016-12-01T05:36:19.026Z,-4.04
2016-12-01T05:37:27.707Z,-4.19
2016-12-01T05:38:36.391Z,-4.14
2016-12-01T05:39:45.072Z,-4.22
2016-12-01T05:40:53.756Z,-4.2
2016-12-01T05:42:02.434Z,-4.2
2016-12-01T05:43:11.113Z,-4.19
2016-12-01T05:44:19.794Z,-4.31
2016-12-01T05:45:28.516Z,-4.31
2016-12-01T05:46:37.195Z,-4.2
2016-12-01T05:47:45.874Z,-4.17
2016-12-01T05:48:54.569Z,-4.26
2016-12-01T05:50:03.253Z,-4.16
2016-12-01T05:51:11.940Z,-4.12
2016-12-01T05:52:20.624Z,-4.2
2016-12-01T05:53:29.338Z,-4.05
2016-12-01T05:54:38.023Z,-4.05
2016-12-01T05:55:46.702Z,-4.04
2016-12-01T05:56:55.421Z,-4.05
2016-12-01T05:58:04.102Z,-3.87
2016-12-01T05:59:12.786Z,-4.02
2016-12-01T06:00:21.468Z,-4.06
2016-12-01T06:01:30.158Z,-4.04
2016-12-01T06:02:38.835Z,-4.06
2016-12-01T06:03:47.517Z,-3.98
2016-12-01T06:04:56.201Z,-3.88
2016-12-01T06:06:04.884Z,-3.84
2016-12-01T06:07:13.600Z,-3.87
2016-12-01T06:08:22.287Z,-3.9
2016-12-01T06:09:30.968Z,-3.74
2016-12-01T06:10:39.648Z,-3.74
2016-12-01T06:11:48.330Z,-3.66
2016-12-01T06:12:57.013Z,-3.74
2016-12-01T06:14:05.689Z,-3.62
2016-12-01T06:15:14.372Z,-3.59
2016-12-01T06:16:23.370Z,-3.46
2016-12-01T06:17:32.053Z,-3.41
2016-12-01T06:18:40.735Z,-3.23
2016-12-01T06:19:49.420Z,-3.14
2016-12-01T06:20:58.106Z,-3.02
2016-12-01T06:22:06.806Z,-3.01
2016-12-01T06:23:15.490Z,-2.99
2016-12-01T06:24:24.176Z,-2.99
2016-12-01T06:25:32.860Z,-2.99
2016-12-01T06:26:41.538Z,-2.99
2016-12-01T06:27:50.223Z,-2.93
2016-12-01T06:28:58.904Z,-2.9
2016-12-01T06:30:07.588Z,-2.83
2016-12-01T06:31:16.276Z,-2.84
2016-12-01T06:32:24.957Z,-2.83
2016-12-01T06:33:33.954Z,-2.91
2016-12-01T06:34:42.636Z,-2.83
2016-12-01T06:35:51.373Z,-2.76
2016-12-01T06:37:00.054Z,-2.7
2016-12-01T06:38:08.753Z,-2.66
2016-12-01T06:39:17.436Z,-2.73
2016-12-01T06:40:26.118Z,-2.7
2016-12-01T06:41:34.799Z,-2.58
2016-12-01T06:42:43.505Z,-2.62
2016-12-01T06:43:52.189Z,-2.55
2016-12-01T06:45:00.871Z,-2.58
2016-12-01T06:46:09.550Z,-2.69
2016-12-01T06:47:18.236Z,-2.61
2016-12-01T06:48:26.926Z,-2.52
2016-12-01T06:49:35.607Z,-2.54
2016-12-01T06:50:44.287Z,-2.51
2016-12-01T06:51:52.963Z,-2.54
2016-12-01T06:53:01.652Z,-2.62
2016-12-01T06:54:10.335Z,-2.5
2016-12-01T06:55:19.014Z,-2.51
2016-12-01T06:56:27.701Z,-2.5
2016-12-01T06:57:36.385Z,-2.37
2016-12-01T06:58:45.069Z,-2.29
2016-12-01T06:59:53.771Z,-2.25
2016-12-01T07:01:02.456Z,-2.14
2016-12-01T07:02:11.136Z,-2.1
2016-12-01T07:03:19.823Z,-2.08
2016-12-01T07:04:28.506Z,-2.04
2016-12-01T07:05:37.191Z,-2.08
2016-12-01T07:06:45.881Z,-2.22
2016-12-01T07:07:54.571Z,-2.2
2016-12-01T07:09:03.249Z,-2.26
2016-12-01T07:10:11.929Z,-2.36
2016-12-01T07:11:20.614Z,-2.28
2016-12-01T07:12:29.304Z,-2.34
2016-12-01T07:13:37.992Z,-2.32
2016-12-01T07:14:46.676Z,-2.45
2016-12-01T07:15:55.360Z,-2.48
2016-12-01T07:17:04.078Z,-2.39
2016-12-01T07:18:12.755Z,-2.45
2016-12-01T07:19:21.437Z,-2.42
2016-12-01T07:20:30.121Z,-2.45
2016-12-01T07:21:38.839Z,-2.48
2016-12-01T07:22:47.526Z,-2.51
2016-12-01T07:23:56.209Z,-2.5
2016-12-01T07:25:05.208Z,-2.48
2016-12-01T07:26:13.892Z,-2.54
2016-12-01T07:27:22.576Z,-2.5
2016-12-01T07:28:31.259Z,-2.4
2016-12-01T07:29:39.956Z,-2.48
2016-12-01T07:30:48.640Z,-2.47
2016-12-01T07:31:57.321Z,-2.48
2016-12-01T07:33:06.002Z,-2.51
2016-12-01T07:34:14.693Z,-2.51
2016-12-01T07:35:23.379Z,-2.4
2016-12-01T07:36:32.062Z,-2.42
2016-12-01T07:37:40.745Z,-2.55
2016-12-01T07:38:49.433Z,-2.51
2016-12-01T07:39:58.124Z,-2.45
2016-12-01T07:41:06.806Z,-2.54
2016-12-01T07:42:15.495Z,-2.34
2016-12-01T07:43:24.178Z,-2.34
2016-12-01T07:44:32.858Z,-2.22
2016-12-01T07:45:41.547Z,-1.97
2016-12-01T07:46:50.236Z,-1.94
2016-12-01T07:47:58.921Z,-1.97
2016-12-01T07:49:07.600Z,-1.84
2016-12-01T07:50:16.282Z,-1.82
2016-12-01T07:51:24.965Z,-1.75
2016-12-01T07:52:33.646Z,-1.76
2016-12-01T07:53:42.332Z,-1.71
2016-12-01T07:54:51.016Z,-1.63
2016-12-01T07:55:59.694Z,-1.66
2016-12-01T07:57:08.375Z,-1.63
2016-12-01T07:58:17.061Z,-1.6
2016-12-01T07:59:26.057Z,-1.58
2016-12-01T08:00:34.739Z,-1.6
2016-12-01T08:01:43.420Z,-1.61
2016-12-01T08:02:52.106Z,-1.63
2016-12-01T08:04:00.786Z,-1.74
2016-12-01T08:05:09.468Z,-1.76
2016-12-01T08:06:18.180Z,-1.96
2016-12-01T08:07:27.186Z,-1.84
2016-12-01T08:08:35.889Z,-1.94
2016-12-01T08:09:44.571Z,-2.05
2016-12-01T08:10:53.254Z,-2.05
2016-12-01T08:12:01.936Z,-2.04
2016-12-01T08:13:10.618Z,-2.1
2016-12-01T08:14:19.308Z,-2
2016-12-01T08:15:27.992Z,-2.04
2016-12-01T08:16:36.689Z,-2.02
2016-12-01T08:17:45.377Z,-2
2016-12-01T08:18:54.382Z,-2.02
2016-12-01T08:20:03.066Z,-1.96
2016-12-01T08:21:11.776Z,-1.92
2016-12-01T08:22:20.456Z,-1.92
2016-12-01T08:23:29.140Z,-1.82
2016-12-01T08:24:37.823Z,-1.86
2016-12-01T08:25:46.509Z,-1.78
2016-12-01T08:26:55.191Z,-1.75
2016-12-01T08:28:03.878Z,-1.9
2016-12-01T08:29:12.563Z,-2.04
2016-12-01T08:30:21.255Z,-2.05
2016-12-01T08:31:29.939Z,-2.15
2016-12-01T08:32:38.623Z,-2.22
2016-12-01T08:33:47.306Z,-2.17
2016-12-01T08:34:56.019Z,-2.13
2016-12-01T08:36:04.698Z,-2.1
2016-12-01T08:37:13.382Z,-2.11
2016-12-01T08:38:22.066Z,-2.07
2016-12-01T08:39:30.752Z,-1.96
2016-12-01T08:40:39.436Z,-1.9
2016-12-01T08:41:48.123Z,-1.79
2016-12-01T08:42:56.805Z,-1.76
2016-12-01T08:44:05.485Z,-1.75
2016-12-01T08:45:14.163Z,-1.78
2016-12-01T08:46:22.848Z,-1.75
2016-12-01T08:47:31.540Z,-1.87
2016-12-01T08:48:40.237Z,-1.81
2016-12-01T08:49:48.924Z,-1.87
2016-12-01T08:50:57.607Z,-1.89
2016-12-01T08:52:06.293Z,-1.93
2016-12-01T08:53:14.977Z,-2.04
2016-12-01T08:54:23.657Z,-2
2016-12-01T08:55:32.338Z,-2
2016-12-01T08:56:41.026Z,-2.17
2016-12-01T08:57:49.713Z,-2.13
2016-12-01T08:58:58.393Z,-2.11
2016-12-01T09:00:07.084Z,-2.26
2016-12-01T09:01:16.091Z,-2.17
2016-12-01T09:02:24.778Z,-2.22
2016-12-01T09:03:33.460Z,-2
2016-12-01T09:04:42.145Z,-1.92
2016-12-01T09:05:50.835Z,-1.82
2016-12-01T09:06:59.518Z,-1.79
2016-12-01T09:08:08.208Z,-1.72
2016-12-01T09:09:16.895Z,-1.81
2016-12-01T09:10:25.578Z,-1.75
2016-12-01T09:11:34.263Z,-1.81
2016-12-01T09:12:42.954Z,-1.71
2016-12-01T09:13:51.639Z,-1.54
2016-12-01T09:15:00.325Z,-1.48
2016-12-01T09:16:09.014Z,-1.43
2016-12-01T09:17:17.703Z,-1.53
2016-12-01T09:18:26.384Z,-1.58
2016-12-01T09:19:35.072Z,-1.79
2016-12-01T09:20:43.766Z,-1.72
2016-12-01T09:21:52.456Z,-1.64
2016-12-01T09:23:01.142Z,-1.66
2016-12-01T09:24:09.823Z,-1.63
2016-12-01T09:25:18.506Z,-1.74
2016-12-01T09:26:27.199Z,-1.68
2016-12-01T09:27:35.886Z,-1.69
2016-12-01T09:28:44.568Z,-1.66
2016-12-01T09:29:53.278Z,-1.63
2016-12-01T09:31:01.963Z,-1.75
2016-12-01T09:32:10.642Z,-1.78
2016-12-01T09:33:19.651Z,-1.92
2016-12-01T09:34:28.328Z,-1.86
2016-12-01T09:35:37.026Z,-1.89
2016-12-01T09:36:45.714Z,-1.82
2016-12-01T09:37:54.408Z,-1.81
2016-12-01T09:39:03.096Z,-1.79
2016-12-01T09:40:11.815Z,-1.76
2016-12-01T09:41:20.497Z,-1.71
2016-12-01T09:42:29.179Z,-1.68
2016-12-01T09:43:37.862Z,-1.5
2016-12-01T09:44:46.547Z,-1.35
2016-12-01T09:45:55.233Z,-1.36
2016-12-01T09:47:03.922Z,-1.3
2016-12-01T09:48:12.651Z,-1.29
2016-12-01T09:49:21.329Z,-1.33
2016-12-01T09:50:30.016Z,-1.36
2016-12-01T09:51:38.703Z,-1.32
2016-12-01T09:52:47.384Z,-1.3
2016-12-01T09:53:56.067Z,-1.29
2016-12-01T09:55:04.755Z,-1.17
2016-12-01T09:56:13.437Z,-1.07
2016-12-01T09:57:22.115Z,-0.94
2016-12-01T09:58:30.793Z,-0.94
2016-12-01T09:59:39.482Z,-0.89
2016-12-01T10:00:48.168Z,-1.04
2016-12-01T10:01:56.856Z,-1.22
2016-12-01T10:03:05.541Z,-1.46
2016-12-01T10:04:14.225Z,-1.5
2016-12-01T10:05:22.912Z,-1.56
2016-12-01T10:06:31.599Z,-1.42
2016-12-01T10:07:40.285Z,-1.36
2016-12-01T10:08:48.969Z,-1.22
2016-12-01T10:09:57.652Z,-1.18
2016-12-01T10:11:06.340Z,-1.24
2016-12-01T10:12:15.030Z,-1.18
2016-12-01T10:13:23.722Z,-1.04
2016-12-01T10:14:32.418Z,-0.7
2016-12-01T10:15:41.105Z,-0.67
2016-12-01T10:16:49.816Z,-0.41
2016-12-01T10:17:58.505Z,-0.3
2016-12-01T10:19:07.190Z,-0.12
2016-12-01T10:20:15.875Z,-0.15
2016-12-01T10:21:24.588Z,-0.12
2016-12-01T10:22:33.270Z,-0.13
2016-12-01T10:23:41.957Z,-0.09
2016-12-01T10:24:50.974Z,-0.12
2016-12-01T10:25:59.655Z,-0.02
2016-12-01T10:27:08.337Z,0.08
2016-12-01T10:28:17.017Z,0.15
2016-12-01T10:29:25.703Z,0.47
2016-12-01T10:30:34.391Z,0.66
2016-12-01T10:31:43.155Z,1.13
2016-12-01T10:32:51.843Z,1.46
2016-12-01T10:34:00.533Z,1.81
2016-12-01T10:35:09.216Z,1.97
2016-12-01T10:36:17.903Z,1.97
2016-12-01T10:37:26.592Z,2
2016-12-01T10:38:35.276Z,1.89
2016-12-01T10:39:43.963Z,1.85
2016-12-01T10:40:52.677Z,1.64
2016-12-01T10:42:01.415Z,1.58
2016-12-01T10:43:10.102Z,1.53
2016-12-01T10:44:18.788Z,1.53
2016-12-01T10:45:27.474Z,1.2
2016-12-01T10:46:36.164Z,0.7
2016-12-01T10:47:44.856Z,0.48
2016-12-01T10:48:53.538Z,0.51
2016-12-01T10:50:02.225Z,0.94
2016-12-01T10:51:10.915Z,1.12
2016-12-01T10:52:19.620Z,1.42
2016-12-01T10:53:28.307Z,1.52
2016-12-01T10:54:36.996Z,1.92
2016-12-01T10:55:45.679Z,2.16
2016-12-01T10:56:54.376Z,2.21
2016-12-01T10:58:03.069Z,2.37
2016-12-01T10:59:11.763Z,2.65
2016-12-01T11:00:20.448Z,3.03
2016-12-01T11:01:29.160Z,3.45
2016-12-01T11:02:37.847Z,3.46
2016-12-01T11:03:46.536Z,3.41
2016-12-01T11:04:55.227Z,3.03
2016-12-01T11:06:03.947Z,2.51
2016-12-01T11:07:12.639Z,2.04
2016-12-01T11:08:21.327Z,1.7
2016-12-01T11:09:30.014Z,1.34
2016-12-01T11:10:38.708Z,1.2
2016-12-01T11:11:47.400Z,1
2016-12-01T11:12:56.101Z,0.68
2016-12-01T11:14:04.791Z,0.61
2016-12-01T11:15:13.806Z,0.67
2016-12-01T11:16:22.499Z,0.61
2016-12-01T11:17:31.186Z,0.61
2016-12-01T11:18:39.871Z,0.67
2016-12-01T11:19:48.611Z,0.71
2016-12-01T11:20:57.302Z,0.76
2016-12-01T11:22:05.986Z,0.64
2016-12-01T11:23:14.674Z,0.36
2016-12-01T11:24:23.373Z,0.11
2016-12-01T11:25:32.059Z,-0.1
2016-12-01T11:26:40.745Z,-0.23
2016-12-01T11:27:49.530Z,-0.38
2016-12-01T11:28:58.217Z,-0.63
2016-12-01T11:30:06.911Z,-0.64
2016-12-01T11:31:15.603Z,-0.63
2016-12-01T11:32:24.290Z,-0.6
2016-12-01T11:36:29.478Z,-0.96
2016-12-01T11:37:38.496Z,-0.85
2016-12-01T11:38:47.180Z,-0.81
2016-12-01T11:39:55.915Z,-0.89
2016-12-01T11:41:04.607Z,-1
2016-12-01T11:42:13.291Z,-1.03
2016-12-01T11:43:21.975Z,-1.14
2016-12-01T11:44:30.977Z,-1.12
2016-12-01T11:45:39.711Z,-1.11
2016-12-01T11:46:48.397Z,-1.17
2016-12-01T11:47:57.397Z,-1.14
2016-12-01T11:49:06.085Z,-1.19
2016-12-01T11:50:15.096Z,-1.19
2016-12-01T11:51:23.842Z,-1.22
2016-12-01T11:52:32.521Z,-1.17
2016-12-01T11:53:41.206Z,-1.18
2016-12-01T11:54:49.886Z,-1.07
2016-12-01T11:55:58.571Z,-0.77
2016-12-01T11:57:07.303Z,-0.56
2016-12-01T11:58:15.990Z,-0.48
2016-12-01T11:59:24.671Z,-0.38
2016-12-01T12:00:33.361Z,-0.31
2016-12-01T12:01:42.049Z,-0.21
2016-12-01T12:02:50.831Z,-0.21
2016-12-01T12:03:59.524Z,-0.3
2016-12-01T12:05:08.210Z,-0.3
2016-12-01T12:06:16.927Z,-0.26
2016-12-01T12:07:25.704Z,-0.18
2016-12-01T12:08:34.438Z,-0.15
2016-12-01T12:09:43.124Z,0
2016-12-01T12:10:51.809Z,0.05
2016-12-01T12:12:00.497Z,-0.06
2016-12-01T12:13:09.187Z,-0.06
2016-12-01T12:14:17.878Z,-0.1
2016-12-01T12:15:26.564Z,-0.2
2016-12-01T12:16:35.250Z,-0.28
2016-12-01T12:17:43.937Z,-0.27
2016-12-01T12:18:52.659Z,-0.28
2016-12-01T12:20:01.348Z,-0.39
2016-12-01T12:21:10.033Z,-0.49
2016-12-01T12:22:18.725Z,-0.6
2016-12-01T12:23:27.403Z,-0.63
2016-12-01T12:24:36.085Z,-0.7
2016-12-01T12:25:44.774Z,-0.72
2016-12-01T12:26:53.468Z,-0.77
2016-12-01T12:28:02.179Z,-0.72
2016-12-01T12:29:10.859Z,-0.74
2016-12-01T12:30:19.549Z,-0.82
2016-12-01T12:31:28.235Z,-0.77
2016-12-01T12:32:36.928Z,-0.74
2016-12-01T12:33:45.605Z,-0.69
2016-12-01T12:34:54.286Z,-0.94
2016-12-01T12:36:02.971Z,-1.17
2016-12-01T12:37:11.655Z,-1.19
2016-12-01T12:38:20.333Z,-1.17
2016-12-01T12:39:29.021Z,-1.19
2016-12-01T12:40:37.706Z,-1.09
2016-12-01T12:41:46.386Z,-1.03
2016-12-01T12:42:55.076Z,-0.94
2016-12-01T12:44:03.774Z,-0.96
2016-12-01T12:45:12.457Z,-1
2016-12-01T12:46:21.165Z,-1.11
2016-12-01T12:47:29.856Z,-1.21
2016-12-01T12:48:38.539Z,-1.38
2016-12-01T12:49:47.230Z,-1.3
2016-12-01T12:50:55.913Z,-1.45
2016-12-01T12:52:04.599Z,-1.54
2016-12-01T12:53:13.278Z,-1.53
2016-12-01T12:54:21.960Z,-1.54
2016-12-01T12:55:30.641Z,-1.57
2016-12-01T12:56:39.324Z,-1.57
2016-12-01T12:57:48.015Z,-1.54
2016-12-01T12:58:56.701Z,-1.64
2016-12-01T13:00:05.384Z,-1.61
2016-12-01T13:01:14.074Z,-1.64
2016-12-01T13:02:22.760Z,-1.64
2016-12-01T13:03:31.444Z,-1.66
2016-12-01T13:04:40.156Z,-1.66
2016-12-01T13:05:48.834Z,-1.68
2016-12-01T13:06:57.849Z,-1.56
2016-12-01T13:08:06.533Z,-1.68
2016-12-01T13:09:15.213Z,-1.6
2016-12-01T13:10:23.893Z,-1.66
2016-12-01T13:11:32.576Z,-1.58
2016-12-01T13:12:41.261Z,-1.58
2016-12-01T13:13:49.962Z,-1.63
2016-12-01T13:14:58.672Z,-1.66
2016-12-01T13:16:07.355Z,-1.72
2016-12-01T13:17:16.043Z,-1.75
2016-12-01T13:18:24.743Z,-1.9
2016-12-01T13:19:33.742Z,-1.87
2016-12-01T13:20:42.434Z,-1.93
2016-12-01T13:21:51.118Z,-1.92
2016-12-01T13:22:59.799Z,-2.04
2016-12-01T13:24:08.483Z,-1.92
2016-12-01T13:25:17.164Z,-2.04
2016-12-01T13:26:25.850Z,-1.94
2016-12-01T13:27:34.571Z,-2
2016-12-01T13:28:43.252Z,-1.99
2016-12-01T13:29:51.963Z,-2.08
2016-12-01T13:31:00.649Z,-2.05
2016-12-01T13:32:09.330Z,-2.13
2016-12-01T13:33:18.020Z,-2.2
2016-12-01T13:34:26.738Z,-2.32
2016-12-01T13:35:35.415Z,-2.36
2016-12-01T13:36:44.097Z,-2.29
2016-12-01T13:37:52.779Z,-2.36
2016-12-01T13:39:01.467Z,-2.45
2016-12-01T13:40:10.151Z,-2.36
2016-12-01T13:41:18.863Z,-2.15
2016-12-01T13:42:27.549Z,-1.94
2016-12-01T13:43:36.230Z,-1.72
2016-12-01T13:44:44.909Z,-1.45
2016-12-01T13:45:53.587Z,-1.4
2016-12-01T13:47:02.269Z,-1.15
2016-12-01T13:48:10.951Z,-1.17
2016-12-01T13:49:19.640Z,-1.35
2016-12-01T13:50:28.322Z,-1.45
2016-12-01T13:51:37.001Z,-1.79
2016-12-01T13:52:45.677Z,-1.89
2016-12-01T13:53:54.370Z,-1.99
2016-12-01T13:55:03.063Z,-2.1
2016-12-01T13:56:11.748Z,-2.17
2016-12-01T13:57:22.513Z,-2.23
2016-12-01T13:58:31.193Z,-2.14
2016-12-01T13:59:39.880Z,-2.2
2016-12-01T14:00:48.585Z,-2.18
2016-12-01T14:01:57.268Z,-2.23
2016-12-01T14:03:05.949Z,-2.2
2016-12-01T14:04:14.630Z,-2.34
2016-12-01T14:05:23.311Z,-2.33
2016-12-01T14:06:31.998Z,-2.26
2016-12-01T14:07:40.682Z,-2.17
2016-12-01T14:08:49.373Z,-2.11
2016-12-01T14:09:58.053Z,-2.05
2016-12-01T14:11:06.739Z,-1.97
2016-12-01T14:12:15.422Z,-1.93
2016-12-01T14:13:24.143Z,-1.92
2016-12-01T14:14:32.826Z,-1.92
2016-12-01T14:15:41.508Z,-1.99
2016-12-01T14:16:50.189Z,-1.86
2016-12-01T14:17:58.875Z,-1.86
2016-12-01T14:19:07.562Z,-1.86
2016-12-01T14:20:16.248Z,-1.82
2016-12-01T14:21:24.927Z,-1.82
2016-12-01T14:22:33.609Z,-1.92
2016-12-01T14:23:42.298Z,-1.87
2016-12-01T14:24:50.979Z,-1.97
2016-12-01T14:25:59.664Z,-2.02
2016-12-01T14:27:08.345Z,-2.08
2016-12-01T14:28:17.032Z,-2.02
2016-12-01T14:29:25.711Z,-1.99
2016-12-01T14:30:34.396Z,-1.93
2016-12-01T14:31:43.084Z,-1.84
2016-12-01T14:32:51.766Z,-1.68
2016-12-01T14:34:00.451Z,-1.43
2016-12-01T14:35:09.147Z,-1.43
2016-12-01T14:36:18.143Z,-1.42
2016-12-01T14:37:26.827Z,-1.33
2016-12-01T14:38:35.505Z,-1.22
2016-12-01T14:39:44.192Z,-1.18
2016-12-01T14:40:52.872Z,-1.06
2016-12-01T14:42:01.551Z,-1.14
2016-12-01T14:43:10.242Z,-1
2016-12-01T14:44:18.928Z,-1.04
2016-12-01T14:45:27.612Z,-1.12
2016-12-01T14:46:36.616Z,-1.09
2016-12-01T14:47:45.298Z,-1.27
2016-12-01T14:48:53.982Z,-1.4
2016-12-01T14:50:02.670Z,-1.56
2016-12-01T14:51:11.383Z,-1.66
2016-12-01T14:52:20.114Z,-1.81
2016-12-01T14:53:28.833Z,-2.02
2016-12-01T14:54:37.513Z,-2.26